createdAt,value
2017-03-07T00:00:20.704Z,998.94
2017-03-07T00:01:29.688Z,998.92
2017-03-07T00:02:38.676Z,998.86
2017-03-07T00:03:47.646Z,998.91
2017-03-07T00:04:56.889Z,998.92
2017-03-07T00:06:05.874Z,998.97
2017-03-07T00:07:14.861Z,998.89
2017-03-07T00:08:23.833Z,998.95
2017-03-07T00:09:32.810Z,998.99
2017-03-07T00:10:42.109Z,999.06
2017-03-07T00:11:51.079Z,999.03
2017-03-07T00:13:00.049Z,999.06
2017-03-07T00:14:09.024Z,999.09
2017-03-07T00:15:18.019Z,999.05
2017-03-07T00:16:27.246Z,999.05
2017-03-07T00:17:36.218Z,999.07
2017-03-07T00:18:45.290Z,999.05
2017-03-07T00:19:54.276Z,999.07
2017-03-07T00:21:03.256Z,999.07
2017-03-07T00:22:12.533Z,999.11
2017-03-07T00:23:21.590Z,999.1
2017-03-07T00:24:30.572Z,999.11
2017-03-07T00:25:39.661Z,999.15
2017-03-07T00:26:48.632Z,999.17
2017-03-07T00:27:58.005Z,999.16
2017-03-07T00:29:07.098Z,999.18
2017-03-07T00:30:16.079Z,999.18
2017-03-07T00:31:25.168Z,999.18
2017-03-07T00:32:34.142Z,999.22
2017-03-07T00:33:43.426Z,999.23
2017-03-07T00:34:52.411Z,999.21
2017-03-07T00:36:01.488Z,999.21
2017-03-07T00:37:10.470Z,999.25
2017-03-07T00:38:19.626Z,999.23
2017-03-07T00:39:28.907Z,999.26
2017-03-07T00:40:37.880Z,999.24
2017-03-07T00:41:46.956Z,999.3
2017-03-07T00:42:55.955Z,999.29
2017-03-07T00:44:04.948Z,999.3
2017-03-07T00:45:14.182Z,999.28
2017-03-07T00:46:23.170Z,999.3
2017-03-07T00:47:32.156Z,999.33
2017-03-07T00:48:41.139Z,999.32
2017-03-07T00:49:50.117Z,999.38
2017-03-07T00:50:59.409Z,999.29
2017-03-07T00:52:08.392Z,999.31
2017-03-07T00:53:17.373Z,999.32
2017-03-07T00:54:26.370Z,999.3
2017-03-07T00:55:35.370Z,999.36
2017-03-07T00:56:44.678Z,999.34
2017-03-07T00:57:53.745Z,999.33
2017-03-07T00:59:02.730Z,999.3
2017-03-07T01:00:11.709Z,999.29
2017-03-07T01:01:20.685Z,999.32
2017-03-07T01:02:30.426Z,999.35
2017-03-07T01:03:39.413Z,999.27
2017-03-07T01:04:48.383Z,999.31
2017-03-07T01:05:57.360Z,999.36
2017-03-07T01:07:06.345Z,999.23
2017-03-07T01:08:15.619Z,999.32
2017-03-07T01:09:24.814Z,999.27
2017-03-07T01:10:33.896Z,999.29
2017-03-07T01:11:43.298Z,999.28
2017-03-07T01:12:52.354Z,999.3
2017-03-07T01:14:01.717Z,999.28
2017-03-07T01:15:10.688Z,999.32
2017-03-07T01:16:20.181Z,999.31
2017-03-07T01:17:29.195Z,999.36
2017-03-07T01:18:38.188Z,999.36
2017-03-07T01:19:47.431Z,999.38
2017-03-07T01:20:56.416Z,999.41
2017-03-07T01:22:05.431Z,999.4
2017-03-07T01:23:14.417Z,999.44
2017-03-07T01:24:23.403Z,999.41
2017-03-07T01:25:32.696Z,999.42
2017-03-07T01:26:41.695Z,999.43
2017-03-07T01:27:50.688Z,999.48
2017-03-07T01:28:59.676Z,999.44
2017-03-07T01:30:08.665Z,999.41
2017-03-07T01:31:18.344Z,999.48
2017-03-07T01:32:27.419Z,999.48
2017-03-07T01:33:36.453Z,999.44
2017-03-07T01:34:45.456Z,999.48
2017-03-07T01:35:54.468Z,999.48
2017-03-07T01:37:03.759Z,999.52
2017-03-07T01:38:12.744Z,999.48
2017-03-07T01:39:21.800Z,999.52
2017-03-07T01:40:30.769Z,999.5
2017-03-07T01:41:39.864Z,999.55
2017-03-07T01:42:49.101Z,999.54
2017-03-07T01:43:58.107Z,999.53
2017-03-07T01:45:07.166Z,999.59
2017-03-07T01:46:16.562Z,999.61
2017-03-07T01:47:25.558Z,999.62
2017-03-07T01:48:34.835Z,999.63
2017-03-07T01:49:43.813Z,999.63
2017-03-07T01:50:52.827Z,999.69
2017-03-07T01:52:01.815Z,999.68
2017-03-07T01:53:10.789Z,999.67
2017-03-07T01:54:20.102Z,999.68
2017-03-07T01:55:29.076Z,999.67
2017-03-07T01:56:38.072Z,999.7
2017-03-07T01:57:47.139Z,999.7
2017-03-07T01:58:56.148Z,999.74
2017-03-07T02:00:05.393Z,999.73
2017-03-07T02:01:14.452Z,999.76
2017-03-07T02:02:23.428Z,999.74
2017-03-07T02:03:32.401Z,999.76
2017-03-07T02:04:41.392Z,999.77
2017-03-07T02:05:50.666Z,999.84
2017-03-07T02:06:59.721Z,999.76
2017-03-07T02:08:08.782Z,999.77
2017-03-07T02:09:17.762Z,999.81
2017-03-07T02:10:26.754Z,999.87
2017-03-07T02:11:35.972Z,999.79
2017-03-07T02:12:45.366Z,999.81
2017-03-07T02:13:54.356Z,999.84
2017-03-07T02:15:03.335Z,999.82
2017-03-07T02:16:12.322Z,999.82
2017-03-07T02:17:21.550Z,999.86
2017-03-07T02:18:30.528Z,999.85
2017-03-07T02:19:39.516Z,999.88
2017-03-07T02:20:48.507Z,999.86
2017-03-07T02:21:57.568Z,999.92
2017-03-07T02:23:06.841Z,999.92
2017-03-07T02:24:15.809Z,999.92
2017-03-07T02:25:24.881Z,999.96
2017-03-07T02:26:34.287Z,999.96
2017-03-07T02:27:43.275Z,1000
2017-03-07T02:28:52.551Z,999.99
2017-03-07T02:30:01.963Z,999.99
2017-03-07T02:31:10.951Z,1000.04
2017-03-07T02:32:19.941Z,1000.02
2017-03-07T02:33:28.911Z,1000.08
2017-03-07T02:34:38.214Z,1000.11
2017-03-07T02:35:47.187Z,1000.05
2017-03-07T02:36:56.157Z,1000.14
2017-03-07T02:38:05.144Z,1000.1
2017-03-07T02:39:14.121Z,1000.17
2017-03-07T02:40:23.374Z,1000.14
2017-03-07T02:41:32.445Z,1000.19
2017-03-07T02:42:41.434Z,1000.17
2017-03-07T02:43:50.585Z,1000.2
2017-03-07T02:44:59.566Z,1000.15
2017-03-07T02:46:08.787Z,1000.23
2017-03-07T02:47:17.771Z,1000.2
2017-03-07T02:48:26.835Z,1000.23
2017-03-07T02:49:35.825Z,1000.29
2017-03-07T02:50:44.802Z,1000.28
2017-03-07T02:51:54.076Z,1000.28
2017-03-07T02:53:03.139Z,1000.26
2017-03-07T02:54:12.223Z,1000.32
2017-03-07T02:55:21.609Z,1000.31
2017-03-07T02:56:30.586Z,1000.3
2017-03-07T02:57:39.890Z,1000.39
2017-03-07T02:58:48.858Z,1000.39
2017-03-07T02:59:57.846Z,1000.37
2017-03-07T03:01:06.857Z,1000.39
2017-03-07T03:02:15.830Z,1000.42
2017-03-07T03:03:25.073Z,1000.37
2017-03-07T03:04:34.058Z,1000.41
2017-03-07T03:05:43.138Z,1000.43
2017-03-07T03:06:52.129Z,1000.42
2017-03-07T03:08:01.120Z,1000.4
2017-03-07T03:09:10.405Z,1000.46
2017-03-07T03:10:19.403Z,1000.44
2017-03-07T03:11:28.391Z,1000.5
2017-03-07T03:12:37.413Z,1000.47
2017-03-07T03:13:46.578Z,1000.48
2017-03-07T03:14:55.890Z,1000.49
2017-03-07T03:16:04.957Z,1000.48
2017-03-07T03:17:13.948Z,1000.51
2017-03-07T03:18:23.007Z,1000.52
2017-03-07T03:19:31.987Z,1000.55
2017-03-07T03:20:41.263Z,1000.59
2017-03-07T03:21:50.235Z,1000.6
2017-03-07T03:22:59.218Z,1000.64
2017-03-07T03:24:08.210Z,1000.67
2017-03-07T03:25:17.199Z,1000.66
2017-03-07T03:26:26.465Z,1000.68
2017-03-07T03:27:35.869Z,1000.74
2017-03-07T03:28:44.861Z,1000.7
2017-03-07T03:29:53.927Z,1000.7
2017-03-07T03:31:02.917Z,1000.74
2017-03-07T03:32:12.286Z,1000.73
2017-03-07T03:33:21.255Z,1000.78
2017-03-07T03:34:30.239Z,1000.77
2017-03-07T03:35:39.233Z,1000.79
2017-03-07T03:36:48.316Z,1000.81
2017-03-07T03:37:58.036Z,1000.85
2017-03-07T03:39:07.012Z,1000.85
2017-03-07T03:40:15.975Z,1000.87
2017-03-07T03:41:24.942Z,1000.88
2017-03-07T03:42:33.916Z,1000.91
2017-03-07T03:43:43.306Z,1000.95
2017-03-07T03:44:52.764Z,1000.98
2017-03-07T03:46:01.776Z,1000.98
2017-03-07T03:47:10.757Z,1000.98
2017-03-07T03:48:19.726Z,1001.04
2017-03-07T03:49:28.950Z,1001.06
2017-03-07T03:50:37.927Z,1001.07
2017-03-07T03:51:46.990Z,1001.07
2017-03-07T03:52:56.019Z,1001.1
2017-03-07T03:54:05.097Z,1001.15
2017-03-07T03:55:14.386Z,1001.19
2017-03-07T03:56:23.367Z,1001.17
2017-03-07T03:57:32.351Z,1001.18
2017-03-07T03:58:41.329Z,1001.21
2017-03-07T03:59:50.307Z,1001.25
2017-03-07T04:00:59.535Z,1001.25
2017-03-07T04:02:08.509Z,1001.25
2017-03-07T04:03:17.492Z,1001.28
2017-03-07T04:04:26.963Z,1001.3
2017-03-07T04:05:35.944Z,1001.33
2017-03-07T04:06:45.232Z,1001.33
2017-03-07T04:07:54.292Z,1001.33
2017-03-07T04:09:03.275Z,1001.38
2017-03-07T04:10:12.288Z,1001.36
2017-03-07T04:11:21.259Z,1001.38
2017-03-07T04:12:30.882Z,1001.42
2017-03-07T04:13:39.857Z,1001.36
2017-03-07T04:14:48.853Z,1001.38
2017-03-07T04:15:57.820Z,1001.4
2017-03-07T04:17:06.903Z,1001.41
2017-03-07T04:18:16.136Z,1001.43
2017-03-07T04:19:25.114Z,1001.46
2017-03-07T04:20:34.090Z,1001.44
2017-03-07T04:21:43.065Z,1001.44
2017-03-07T04:22:52.033Z,1001.4
2017-03-07T04:24:01.313Z,1001.43
2017-03-07T04:25:10.301Z,1001.46
2017-03-07T04:26:19.447Z,1001.48
2017-03-07T04:27:28.424Z,1001.47
2017-03-07T04:28:37.415Z,1001.47
2017-03-07T04:29:46.699Z,1001.51
2017-03-07T04:30:55.666Z,1001.48
2017-03-07T04:32:04.659Z,1001.51
2017-03-07T04:33:13.639Z,1001.49
2017-03-07T04:34:22.618Z,1001.47
2017-03-07T04:35:31.983Z,1001.53
2017-03-07T04:36:41.455Z,1001.59
2017-03-07T04:37:50.451Z,1001.62
2017-03-07T04:38:59.856Z,1001.61
2017-03-07T04:40:08.833Z,1001.68
2017-03-07T04:41:18.123Z,1001.67
2017-03-07T04:42:27.099Z,1001.68
2017-03-07T04:43:36.075Z,1001.7
2017-03-07T04:44:45.057Z,1001.69
2017-03-07T04:45:54.024Z,1001.71
2017-03-07T04:47:03.243Z,1001.76
2017-03-07T04:48:12.228Z,1001.75
2017-03-07T04:49:21.216Z,1001.83
2017-03-07T04:50:30.617Z,1001.83
2017-03-07T04:51:39.619Z,1001.81
2017-03-07T04:52:48.841Z,1001.81
2017-03-07T04:53:57.834Z,1001.9
2017-03-07T04:55:06.805Z,1001.88
2017-03-07T04:56:15.782Z,1001.88
2017-03-07T04:57:24.839Z,1001.92
2017-03-07T04:58:34.057Z,1001.93
2017-03-07T04:59:43.031Z,1001.95
2017-03-07T05:00:52.019Z,1002.01
2017-03-07T05:02:01.906Z,1001.99
2017-03-07T05:03:10.894Z,1001.96
2017-03-07T05:04:20.192Z,1002.01
2017-03-07T05:05:29.273Z,1001.98
2017-03-07T05:06:38.273Z,1001.97
2017-03-07T05:07:47.248Z,1002.03
2017-03-07T05:08:56.300Z,1001.99
2017-03-07T05:10:05.531Z,1002.04
2017-03-07T05:11:14.608Z,1002.01
2017-03-07T05:12:23.579Z,1002.03
2017-03-07T05:13:32.549Z,1002.03
2017-03-07T05:14:41.614Z,1002.01
2017-03-07T05:15:50.908Z,1002.04
2017-03-07T05:16:59.964Z,1002.05
2017-03-07T05:18:08.944Z,1002.05
2017-03-07T05:19:17.942Z,1002.1
2017-03-07T05:20:26.913Z,1002.11
2017-03-07T05:21:35.876Z,1002.14
2017-03-07T05:22:44.843Z,1002.15
2017-03-07T05:23:53.834Z,1002.19
2017-03-07T05:25:02.840Z,1002.18
2017-03-07T05:26:12.067Z,1002.2
2017-03-07T05:27:21.071Z,1002.24
2017-03-07T05:28:30.169Z,1002.23
2017-03-07T05:29:39.221Z,1002.27
2017-03-07T05:30:48.202Z,1002.26
2017-03-07T05:31:57.433Z,1002.26
2017-03-07T05:33:06.412Z,1002.26
2017-03-07T05:34:15.414Z,1002.29
2017-03-07T05:35:24.403Z,1002.32
2017-03-07T05:36:33.372Z,1002.32
2017-03-07T05:37:42.630Z,1002.35
2017-03-07T05:38:51.609Z,1002.37
2017-03-07T05:40:00.594Z,1002.43
2017-03-07T05:41:09.974Z,1002.42
2017-03-07T05:42:18.951Z,1002.43
2017-03-07T05:43:28.205Z,1002.45
2017-03-07T05:44:37.190Z,1002.47
2017-03-07T05:45:46.182Z,1002.5
2017-03-07T05:46:55.156Z,1002.51
2017-03-07T05:48:04.241Z,1002.52
2017-03-07T05:49:13.473Z,1002.5
2017-03-07T05:50:22.455Z,1002.57
2017-03-07T05:51:31.436Z,1002.55
2017-03-07T05:52:40.428Z,1002.64
2017-03-07T05:53:49.406Z,1002.64
2017-03-07T05:54:59.079Z,1002.7
2017-03-07T05:56:08.048Z,1002.7
2017-03-07T05:57:17.031Z,1002.73
2017-03-07T05:58:26.013Z,1002.72
2017-03-07T05:59:35.074Z,1002.79
2017-03-07T06:00:44.296Z,1002.8
2017-03-07T06:01:53.296Z,1002.79
2017-03-07T06:03:02.271Z,1002.78
2017-03-07T06:04:11.250Z,1002.83
2017-03-07T06:05:20.301Z,1002.87
2017-03-07T06:06:29.532Z,1002.87
2017-03-07T06:07:38.596Z,1002.94
2017-03-07T06:08:47.568Z,1002.96
2017-03-07T06:09:56.545Z,1003
2017-03-07T06:11:05.516Z,1003.01
2017-03-07T06:12:14.736Z,1003.02
2017-03-07T06:13:23.717Z,1003.02
2017-03-07T06:14:32.694Z,1003.05
2017-03-07T06:15:41.756Z,1003.08
2017-03-07T06:16:50.766Z,1003.1
2017-03-07T06:18:00.053Z,1003.15
2017-03-07T06:19:09.041Z,1003.12
2017-03-07T06:20:18.026Z,1003.16
2017-03-07T06:21:27.010Z,1003.18
2017-03-07T06:22:35.988Z,1003.21
2017-03-07T06:23:45.279Z,1003.23
2017-03-07T06:24:54.270Z,1003.19
2017-03-07T06:26:03.246Z,1003.22
2017-03-07T06:27:12.243Z,1003.26
2017-03-07T06:28:21.324Z,1003.28
2017-03-07T06:29:30.573Z,1003.29
2017-03-07T06:30:39.548Z,1003.36
2017-03-07T06:31:48.546Z,1003.4
2017-03-07T06:32:58.022Z,1003.32
2017-03-07T06:34:07.005Z,1003.41
2017-03-07T06:35:16.231Z,1003.4
2017-03-07T06:36:25.313Z,1003.45
2017-03-07T06:37:34.284Z,1003.5
2017-03-07T06:38:43.269Z,1003.56
2017-03-07T06:39:52.243Z,1003.62
2017-03-07T06:41:01.472Z,1003.62
2017-03-07T06:42:10.566Z,1003.59
2017-03-07T06:43:19.632Z,1003.57
2017-03-07T06:44:28.607Z,1003.58
2017-03-07T06:45:38.005Z,1003.63
2017-03-07T06:46:47.328Z,1003.64
2017-03-07T06:47:56.406Z,1003.66
2017-03-07T06:49:05.406Z,1003.6
2017-03-07T06:50:14.377Z,1003.68
2017-03-07T06:51:23.345Z,1003.67
2017-03-07T06:52:33.175Z,1003.67
2017-03-07T06:53:42.229Z,1003.68
2017-03-07T06:54:51.205Z,1003.69
2017-03-07T06:56:00.187Z,1003.76
2017-03-07T06:57:09.188Z,1003.79
2017-03-07T06:58:18.898Z,1003.82
2017-03-07T06:59:27.879Z,1003.8
2017-03-07T07:00:36.865Z,1003.81
2017-03-07T07:01:45.875Z,1003.88
2017-03-07T07:02:54.847Z,1003.9
2017-03-07T07:04:04.122Z,1003.94
2017-03-07T07:05:13.105Z,1004
2017-03-07T07:06:22.089Z,1003.99
2017-03-07T07:07:31.057Z,1003.98
2017-03-07T07:08:40.023Z,1003.98
2017-03-07T07:09:49.265Z,1003.99
2017-03-07T07:10:58.242Z,1004.07
2017-03-07T07:12:07.226Z,1004.07
2017-03-07T07:13:16.212Z,1004.12
2017-03-07T07:14:25.191Z,1004.08
2017-03-07T07:15:34.498Z,1004.12
2017-03-07T07:16:43.477Z,1004.17
2017-03-07T07:17:52.472Z,1004.23
2017-03-07T07:19:01.857Z,1004.21
2017-03-07T07:20:10.843Z,1004.27
2017-03-07T07:21:20.121Z,1004.26
2017-03-07T07:22:29.105Z,1004.31
2017-03-07T07:23:38.088Z,1004.39
2017-03-07T07:24:47.063Z,1004.36
2017-03-07T07:25:56.049Z,1004.34
2017-03-07T07:27:05.694Z,1004.37
2017-03-07T07:28:15.359Z,1004.34
2017-03-07T07:29:24.481Z,1004.4
2017-03-07T07:30:33.472Z,1004.4
2017-03-07T07:31:42.677Z,1004.35
2017-03-07T07:32:52.573Z,1004.37
2017-03-07T07:34:01.673Z,1004.38
2017-03-07T07:35:10.690Z,1004.42
2017-03-07T07:36:19.864Z,1004.38
2017-03-07T07:37:28.888Z,1004.35
2017-03-07T07:38:38.253Z,1004.35
2017-03-07T07:39:47.339Z,1004.4
2017-03-07T07:40:56.423Z,1004.37
2017-03-07T07:42:05.833Z,1004.41
2017-03-07T07:43:14.917Z,1004.44
2017-03-07T07:44:24.235Z,1004.47
2017-03-07T07:45:33.442Z,1004.47
2017-03-07T07:46:42.494Z,1004.46
2017-03-07T07:47:51.495Z,1004.52
2017-03-07T07:49:00.509Z,1004.51
2017-03-07T07:50:09.737Z,1004.53
2017-03-07T07:51:19.229Z,1004.55
2017-03-07T07:52:28.208Z,1004.57
2017-03-07T07:53:37.365Z,1004.54
2017-03-07T07:54:46.364Z,1004.63
2017-03-07T07:55:55.599Z,1004.57
2017-03-07T07:57:04.707Z,1004.61
2017-03-07T07:58:13.827Z,1004.65
2017-03-07T07:59:22.911Z,1004.68
2017-03-07T08:00:32.091Z,1004.65
2017-03-07T08:01:41.335Z,1004.67
2017-03-07T08:02:50.309Z,1004.64
2017-03-07T08:03:59.985Z,1004.7
2017-03-07T08:05:09.050Z,1004.73
2017-03-07T08:06:18.135Z,1004.77
2017-03-07T08:07:28.191Z,1004.8
2017-03-07T08:08:37.175Z,1004.78
2017-03-07T08:09:46.253Z,1004.83
2017-03-07T08:10:55.273Z,1004.85
2017-03-07T08:12:04.254Z,1004.88
2017-03-07T08:13:13.476Z,1004.9
2017-03-07T08:14:22.472Z,1004.91
2017-03-07T08:15:31.458Z,1004.91
2017-03-07T08:16:40.518Z,1004.9
2017-03-07T08:17:49.592Z,1004.91
2017-03-07T08:18:58.862Z,1004.88
2017-03-07T08:20:07.849Z,1004.91
2017-03-07T08:21:16.830Z,1004.87
2017-03-07T08:22:25.826Z,1004.9
2017-03-07T08:23:34.806Z,1004.91
2017-03-07T08:24:44.099Z,1004.93
2017-03-07T08:25:53.077Z,1004.94
2017-03-07T08:27:02.077Z,1004.94
2017-03-07T08:28:11.070Z,1004.96
2017-03-07T08:29:20.426Z,1004.99
2017-03-07T08:30:30.002Z,1004.97
2017-03-07T08:31:39.175Z,1005.01
2017-03-07T08:32:48.320Z,1005
2017-03-07T08:33:57.327Z,1005.02
2017-03-07T08:35:06.348Z,1005.02
2017-03-07T08:36:16.147Z,1005.03
2017-03-07T08:37:25.238Z,1005.02
2017-03-07T08:38:34.294Z,1005.02
2017-03-07T08:39:43.391Z,1005.05
2017-03-07T08:40:52.491Z,1005.09
2017-03-07T08:42:02.192Z,1005.06
2017-03-07T08:43:11.388Z,1005.1
2017-03-07T08:44:20.661Z,1005.14
2017-03-07T08:45:29.665Z,1005.13
2017-03-07T08:46:38.639Z,1005.16
2017-03-07T08:47:47.935Z,1005.22
2017-03-07T08:48:56.910Z,1005.26
2017-03-07T08:50:06.034Z,1005.29
2017-03-07T08:51:15.354Z,1005.33
2017-03-07T08:52:24.661Z,1005.32
2017-03-07T08:53:34.039Z,1005.33
2017-03-07T08:54:43.186Z,1005.32
2017-03-07T08:55:52.296Z,1005.36
2017-03-07T08:57:01.678Z,1005.34
2017-03-07T08:58:11.173Z,1005.37
2017-03-07T08:59:20.735Z,1005.36
2017-03-07T09:00:30.033Z,1005.37
2017-03-07T09:01:39.094Z,1005.4
2017-03-07T09:02:48.150Z,1005.43
2017-03-07T09:03:57.434Z,1005.41
2017-03-07T09:05:06.685Z,1005.42
2017-03-07T09:06:15.679Z,1005.45
2017-03-07T09:07:24.764Z,1005.46
2017-03-07T09:08:33.740Z,1005.46
2017-03-07T09:09:42.717Z,1005.54
2017-03-07T09:10:52.401Z,1005.49
2017-03-07T09:12:01.519Z,1005.56
2017-03-07T09:13:10.506Z,1005.52
2017-03-07T09:14:19.578Z,1005.57
2017-03-07T09:15:28.618Z,1005.62
2017-03-07T09:16:37.943Z,1005.74
2017-03-07T09:17:47.005Z,1005.66
2017-03-07T09:18:56.022Z,1005.71
2017-03-07T09:20:05.015Z,1005.7
2017-03-07T09:21:14.045Z,1005.7
2017-03-07T09:22:23.273Z,1005.71
2017-03-07T09:23:32.256Z,1005.78
2017-03-07T09:24:41.224Z,1005.71
2017-03-07T09:25:50.319Z,1005.79
2017-03-07T09:27:05.446Z,1005.79
2017-03-07T09:28:28.851Z,1005.82
2017-03-07T09:29:48.618Z,1005.84
2017-03-07T09:30:57.597Z,1005.86
2017-03-07T09:32:06.985Z,1005.88
2017-03-07T09:33:16.320Z,1005.87
2017-03-07T09:34:25.737Z,1005.88
2017-03-07T09:35:34.845Z,1005.91
2017-03-07T09:36:44.035Z,1005.92
2017-03-07T09:37:53.027Z,1005.97
2017-03-07T09:39:02.264Z,1005.93
2017-03-07T09:40:11.236Z,1005.97
2017-03-07T09:41:20.217Z,1005.99
2017-03-07T09:42:29.365Z,1005.99
2017-03-07T09:43:38.353Z,1005.99
2017-03-07T09:44:47.591Z,1006.02
2017-03-07T09:45:56.583Z,1006.09
2017-03-07T09:47:05.557Z,1006.08
2017-03-07T09:48:14.646Z,1006.1
2017-03-07T09:49:23.648Z,1006.17
2017-03-07T09:50:32.955Z,1006.19
2017-03-07T09:51:42.012Z,1006.2
2017-03-07T09:52:51.018Z,1006.2
2017-03-07T09:54:00.006Z,1006.19
2017-03-07T09:55:08.991Z,1006.23
2017-03-07T09:56:18.640Z,1006.21
2017-03-07T09:57:27.708Z,1006.23
2017-03-07T09:58:36.677Z,1006.23
2017-03-07T09:59:45.660Z,1006.21
2017-03-07T10:00:54.670Z,1006.26
2017-03-07T10:02:04.314Z,1006.3
2017-03-07T10:03:13.311Z,1006.29
2017-03-07T10:04:22.377Z,1006.35
2017-03-07T10:05:31.345Z,1006.32
2017-03-07T10:06:40.320Z,1006.34
2017-03-07T10:07:49.538Z,1006.38
2017-03-07T10:08:58.510Z,1006.35
2017-03-07T10:10:07.483Z,1006.32
2017-03-07T10:11:16.899Z,1006.33
2017-03-07T10:12:26.287Z,1006.39
2017-03-07T10:13:35.534Z,1006.37
2017-03-07T10:14:44.513Z,1006.35
2017-03-07T10:15:53.489Z,1006.39
2017-03-07T10:17:02.485Z,1006.39
2017-03-07T10:18:11.563Z,1006.43
2017-03-07T10:19:20.785Z,1006.45
2017-03-07T10:20:29.766Z,1006.52
2017-03-07T10:21:38.855Z,1006.51
2017-03-07T10:22:47.842Z,1006.56
2017-03-07T10:23:56.811Z,1006.6
2017-03-07T10:25:06.030Z,1006.64
2017-03-07T10:26:15.099Z,1006.66
2017-03-07T10:27:24.083Z,1006.7
2017-03-07T10:28:33.069Z,1006.69
2017-03-07T10:29:42.053Z,1006.71
2017-03-07T10:30:51.358Z,1006.75
2017-03-07T10:32:00.332Z,1006.74
2017-03-07T10:33:09.330Z,1006.79
2017-03-07T10:34:18.395Z,1006.8
2017-03-07T10:35:27.384Z,1006.86
2017-03-07T10:36:36.680Z,1006.84
2017-03-07T10:37:45.843Z,1006.84
2017-03-07T10:38:54.832Z,1006.84
2017-03-07T10:40:03.817Z,1006.9
2017-03-07T10:41:12.801Z,1006.92
2017-03-07T10:42:22.103Z,1006.97
2017-03-07T10:43:31.478Z,1006.97
2017-03-07T10:44:40.472Z,1007.03
2017-03-07T10:45:49.536Z,1006.96
2017-03-07T10:46:58.523Z,1007.02
2017-03-07T10:48:07.803Z,1006.96
2017-03-07T10:49:16.779Z,1006.98
2017-03-07T10:50:25.788Z,1006.99
2017-03-07T10:51:34.765Z,1006.98
2017-03-07T10:52:43.756Z,1007.01
2017-03-07T10:53:52.985Z,1007.04
2017-03-07T10:55:02.044Z,1007.06
2017-03-07T10:56:11.112Z,1007.07
2017-03-07T10:57:20.100Z,1007.14
2017-03-07T10:58:29.093Z,1007.16
2017-03-07T10:59:38.473Z,1007.15
2017-03-07T11:00:47.448Z,1007.18
2017-03-07T11:01:56.433Z,1007.2
2017-03-07T11:03:05.830Z,1007.19
2017-03-07T11:04:14.922Z,1007.19
2017-03-07T11:05:24.268Z,1007.19
2017-03-07T11:06:33.260Z,1007.23
2017-03-07T11:07:42.256Z,1007.21
2017-03-07T11:08:51.235Z,1007.22
2017-03-07T11:10:00.329Z,1007.3
2017-03-07T11:11:09.736Z,1007.27
2017-03-07T11:12:18.829Z,1007.25
2017-03-07T11:13:27.815Z,1007.29
2017-03-07T11:14:36.796Z,1007.28
2017-03-07T11:15:45.787Z,1007.32
2017-03-07T11:16:55.089Z,1007.32
2017-03-07T11:18:04.072Z,1007.32
2017-03-07T11:19:13.073Z,1007.35
2017-03-07T11:20:22.136Z,1007.36
2017-03-07T11:21:31.118Z,1007.39
2017-03-07T11:22:40.434Z,1007.36
2017-03-07T11:23:49.538Z,1007.37
2017-03-07T11:24:58.596Z,1007.33
2017-03-07T11:26:07.594Z,1007.4
2017-03-07T11:27:16.597Z,1007.41
2017-03-07T11:28:25.820Z,1007.39
2017-03-07T11:29:34.796Z,1007.41
2017-03-07T11:30:43.792Z,1007.45
2017-03-07T11:31:52.792Z,1007.45
2017-03-07T11:33:01.806Z,1007.48
2017-03-07T11:34:11.031Z,1007.47
2017-03-07T11:35:20.015Z,1007.48
2017-03-07T11:36:29.191Z,1007.5
2017-03-07T11:37:38.171Z,1007.54
2017-03-07T11:38:47.145Z,1007.52
2017-03-07T11:39:56.381Z,1007.56
2017-03-07T11:41:05.397Z,1007.56
2017-03-07T11:42:14.386Z,1007.58
2017-03-07T11:43:23.361Z,1007.58
2017-03-07T11:44:32.332Z,1007.59
2017-03-07T11:45:41.562Z,1007.58
2017-03-07T11:46:50.561Z,1007.58
2017-03-07T11:47:59.529Z,1007.55
2017-03-07T11:49:08.526Z,1007.58
2017-03-07T11:50:17.512Z,1007.58
2017-03-07T11:51:26.785Z,1007.54
2017-03-07T11:52:35.780Z,1007.56
2017-03-07T11:53:44.849Z,1007.62
2017-03-07T11:54:53.834Z,1007.59
2017-03-07T11:56:02.915Z,1007.64
2017-03-07T11:57:12.165Z,1007.66
2017-03-07T11:58:21.139Z,1007.65
2017-03-07T11:59:30.119Z,1007.66
2017-03-07T12:00:39.088Z,1007.7
2017-03-07T12:01:48.075Z,1007.72
2017-03-07T12:02:57.314Z,1007.72
2017-03-07T12:04:06.303Z,1007.67
2017-03-07T12:05:15.275Z,1007.69
2017-03-07T12:06:24.264Z,1007.72
2017-03-07T12:07:33.353Z,1007.69
2017-03-07T12:08:42.581Z,1007.77
2017-03-07T12:09:51.674Z,1007.76
2017-03-07T12:11:00.655Z,1007.79
2017-03-07T12:12:09.648Z,1007.76
2017-03-07T12:13:18.634Z,1007.76
2017-03-07T12:14:27.920Z,1007.78
2017-03-07T12:15:36.928Z,1007.84
2017-03-07T12:16:46.319Z,1007.82
2017-03-07T12:17:55.292Z,1007.87
2017-03-07T12:19:04.271Z,1007.83
2017-03-07T12:20:13.512Z,1007.89
2017-03-07T12:21:22.487Z,1007.89
2017-03-07T12:22:31.471Z,1007.95
2017-03-07T12:23:40.934Z,1007.97
2017-03-07T12:24:50.000Z,1007.99
2017-03-07T12:25:59.234Z,1007.99
2017-03-07T12:27:08.208Z,1008.02
2017-03-07T12:28:17.205Z,1008.04
2017-03-07T12:29:26.194Z,1008.1
2017-03-07T12:30:35.176Z,1008.1
2017-03-07T12:31:44.417Z,1008.09
2017-03-07T12:32:53.412Z,1008.11
2017-03-07T12:34:02.487Z,1008.13
2017-03-07T12:35:11.467Z,1008.14
2017-03-07T12:36:20.435Z,1008.16
2017-03-07T12:37:29.830Z,1008.16
2017-03-07T12:38:38.813Z,1008.17
2017-03-07T12:39:47.806Z,1008.18
2017-03-07T12:40:57.294Z,1008.21
2017-03-07T12:42:06.385Z,1008.22
2017-03-07T12:43:15.663Z,1008.2
2017-03-07T12:44:24.657Z,1008.19
2017-03-07T12:45:33.647Z,1008.24
2017-03-07T12:46:42.630Z,1008.22
2017-03-07T12:47:51.815Z,1008.27
2017-03-07T12:49:01.047Z,1008.29
2017-03-07T12:50:10.036Z,1008.31
2017-03-07T12:51:19.308Z,1008.33
2017-03-07T12:52:28.381Z,1008.36
2017-03-07T12:53:37.478Z,1008.39
2017-03-07T12:54:46.711Z,1008.37
2017-03-07T12:55:55.796Z,1008.42
2017-03-07T12:57:04.784Z,1008.38
2017-03-07T12:58:13.788Z,1008.41
2017-03-07T12:59:24.119Z,1008.41
2017-03-07T13:00:33.472Z,1008.41
2017-03-07T13:01:42.494Z,1008.34
2017-03-07T13:02:51.477Z,1008.36
2017-03-07T13:04:00.452Z,1008.37
2017-03-07T13:05:09.435Z,1008.38
2017-03-07T13:06:18.931Z,1008.4
2017-03-07T13:07:28.335Z,1008.38
2017-03-07T13:08:37.353Z,1008.4
2017-03-07T13:09:46.473Z,1008.43
2017-03-07T13:12:57.942Z,1008.4
2017-03-07T13:14:07.035Z,1008.45
2017-03-07T13:15:16.255Z,1008.44
2017-03-07T13:16:25.986Z,1008.52
2017-03-07T13:17:36.023Z,1008.49
2017-03-07T13:18:45.209Z,1008.55
2017-03-07T13:19:54.350Z,1008.56
2017-03-07T13:21:03.466Z,1008.55
2017-03-07T13:22:12.460Z,1008.6
2017-03-07T13:23:21.705Z,1008.56
2017-03-07T13:24:30.673Z,1008.6
2017-03-07T13:25:39.678Z,1008.58
2017-03-07T13:26:48.663Z,1008.64
2017-03-07T13:27:57.640Z,1008.68
2017-03-07T13:29:06.945Z,1008.68
2017-03-07T13:30:15.927Z,1008.63
2017-03-07T13:31:25.153Z,1008.68
2017-03-07T13:32:34.264Z,1008.72
2017-03-07T13:33:43.329Z,1008.68
2017-03-07T13:34:52.989Z,1008.72
2017-03-07T13:36:02.912Z,1008.73
2017-03-07T13:37:11.954Z,1008.69
2017-03-07T13:38:21.078Z,1008.69
2017-03-07T13:39:30.170Z,1008.73
2017-03-07T13:40:39.523Z,1008.75
2017-03-07T13:41:48.596Z,1008.77
2017-03-07T13:42:57.728Z,1008.77
2017-03-07T13:44:06.845Z,1008.79
2017-03-07T13:45:16.062Z,1008.81
2017-03-07T13:46:25.626Z,1008.79
2017-03-07T13:47:34.926Z,1008.78
2017-03-07T13:48:44.048Z,1008.79
2017-03-07T13:49:53.252Z,1008.81
2017-03-07T13:51:02.374Z,1008.79
2017-03-07T13:52:11.935Z,1008.81
2017-03-07T13:53:21.086Z,1008.78
2017-03-07T13:54:30.073Z,1008.79
2017-03-07T13:55:39.304Z,1008.77
2017-03-07T13:56:48.363Z,1008.77
2017-03-07T13:57:57.657Z,1008.84
2017-03-07T13:59:06.653Z,1008.78
2017-03-07T14:00:15.710Z,1008.82
2017-03-07T14:01:24.832Z,1008.86
2017-03-07T14:02:34.698Z,1008.86
2017-03-07T14:03:44.055Z,1008.91
2017-03-07T14:04:53.270Z,1008.91
2017-03-07T14:06:02.264Z,1008.95